createdAt,value
2024-05-09T00:00:45.698Z,18.30
2024-05-09T00:03:15.787Z,18.40
2024-05-09T00:05:45.635Z,18.50
2024-05-09T00:08:12.928Z,18.60
2024-05-09T00:10:40.982Z,18.50
2024-05-09T00:13:10.201Z,18.20
2024-05-09T00:15:37.946Z,18.20
2024-05-09T00:18:07.164Z,18.30
2024-05-09T00:20:38.998Z,18.30
2024-05-09T00:23:12.760Z,18.30
2024-05-09T00:25:42.258Z,18.30
2024-05-09T00:28:09.442Z,18.10
2024-05-09T00:30:37.360Z,18.00
2024-05-09T00:33:09.408Z,18.00
2024-05-09T00:35:38.062Z,17.80
2024-05-09T00:38:05.619Z,17.80
2024-05-09T00:40:40.422Z,17.70
2024-05-09T00:43:11.419Z,17.70
2024-05-09T00:45:38.926Z,17.60
2024-05-09T00:48:08.655Z,17.60
2024-05-09T00:50:39.547Z,17.50
2024-05-09T00:53:08.202Z,17.40
2024-05-09T00:55:36.966Z,17.20
2024-05-09T00:58:07.155Z,17.30
2024-05-09T01:00:39.105Z,17.30
2024-05-09T01:03:10.539Z,17.10
2024-05-09T01:05:39.886Z,17.10
2024-05-09T01:08:07.704Z,17.00
2024-05-09T01:10:36.135Z,17.00
2024-05-09T01:13:04.759Z,17.00
2024-05-09T01:15:31.900Z,16.90
2024-05-09T01:18:01.403Z,16.90
2024-05-09T01:20:39.122Z,16.90
2024-05-09T01:23:10.057Z,16.80
2024-05-09T01:25:37.856Z,16.90
2024-05-09T01:28:05.318Z,16.90
2024-05-09T01:30:35.607Z,16.90
2024-05-09T01:33:06.812Z,17.00
2024-05-09T01:35:35.536Z,17.20
2024-05-09T01:38:02.727Z,17.20
2024-05-09T01:40:37.141Z,17.20
2024-05-09T01:43:10.949Z,17.30
2024-05-09T01:45:39.659Z,17.10
2024-05-09T01:48:08.001Z,17.20
2024-05-09T01:50:39.838Z,17.10
2024-05-09T01:53:14.293Z,17.00
2024-05-09T01:55:42.140Z,17.00
2024-05-09T01:58:09.598Z,17.00
2024-05-09T02:00:40.813Z,17.10
2024-05-09T02:03:13.680Z,17.00
2024-05-09T02:05:46.744Z,16.80
2024-05-09T02:08:21.559Z,16.80
2024-05-09T02:10:50.028Z,16.80
2024-05-09T02:13:17.525Z,16.80
2024-05-09T02:15:44.858Z,16.80
2024-05-09T02:18:12.598Z,16.90
2024-05-09T02:20:41.324Z,16.90
2024-05-09T02:23:09.304Z,16.90
2024-05-09T02:25:36.437Z,16.80
2024-05-09T02:28:03.747Z,16.70
2024-05-09T02:30:38.797Z,16.60
2024-05-09T02:33:10.174Z,16.50
2024-05-09T02:35:39.072Z,16.60
2024-05-09T02:38:06.194Z,16.50
2024-05-09T02:40:37.242Z,16.30
2024-05-09T02:43:07.347Z,16.40
2024-05-09T02:45:34.591Z,16.40
2024-05-09T02:48:02.195Z,16.30
2024-05-09T02:50:36.727Z,16.40
2024-05-09T02:53:06.944Z,16.40
2024-05-09T02:55:34.275Z,16.40
2024-05-09T02:58:01.251Z,16.50
2024-05-09T03:00:36.788Z,16.30
2024-05-09T03:03:08.791Z,16.40
2024-05-09T03:05:37.305Z,16.70
2024-05-09T03:08:04.908Z,16.60
2024-05-09T03:10:36.207Z,15.30
2024-05-09T03:13:14.920Z,16.80
2024-05-09T03:15:43.709Z,16.80
2024-05-09T03:18:11.570Z,16.70
2024-05-09T03:20:39.390Z,16.70
2024-05-09T03:23:09.318Z,16.80
2024-05-09T03:25:37.618Z,16.80
2024-05-09T03:28:04.807Z,16.80
2024-05-09T03:30:39.860Z,16.70
2024-05-09T03:33:18.796Z,16.60
2024-05-09T03:35:47.665Z,16.50
2024-05-09T03:38:15.080Z,16.30
2024-05-09T03:40:50.235Z,16.20
2024-05-09T03:43:18.898Z,15.90
2024-05-09T03:45:46.702Z,15.60
2024-05-09T03:48:13.853Z,15.70
2024-05-09T03:50:41.500Z,15.70
2024-05-09T03:53:13.946Z,15.70
2024-05-09T03:55:41.232Z,15.60
2024-05-09T03:58:08.537Z,15.60
2024-05-09T04:00:39.154Z,15.50
2024-05-09T04:03:09.942Z,14.40
2024-05-09T04:05:44.201Z,15.40
2024-05-09T04:08:11.816Z,15.40
2024-05-09T04:10:39.009Z,15.40
2024-05-09T04:13:06.099Z,15.40
2024-05-09T04:15:33.216Z,15.50
2024-05-09T04:18:01.128Z,15.50
2024-05-09T04:20:36.646Z,15.60
2024-05-09T04:23:08.159Z,15.60
2024-05-09T04:25:36.023Z,15.60
2024-05-09T04:28:03.238Z,15.60
2024-05-09T04:30:36.862Z,15.50
2024-05-09T04:33:08.836Z,15.50
2024-05-09T04:35:38.256Z,15.50
2024-05-09T04:38:06.281Z,15.50
2024-05-09T04:40:36.326Z,15.60
2024-05-09T04:43:19.192Z,15.60
2024-05-09T04:45:46.616Z,15.60
2024-05-09T04:48:13.880Z,15.50
2024-05-09T04:50:41.260Z,15.50
2024-05-09T04:53:10.799Z,15.60
2024-05-09T04:55:40.462Z,15.70
2024-05-09T04:58:11.981Z,15.70
2024-05-09T05:00:40.762Z,15.70
2024-05-09T05:03:13.273Z,15.70
2024-05-09T05:05:46.173Z,15.70
2024-05-09T05:08:18.786Z,15.70
2024-05-09T05:10:47.820Z,15.70
2024-05-09T05:13:17.174Z,15.80
2024-05-09T05:15:46.096Z,15.90
2024-05-09T05:18:14.805Z,15.90
2024-05-09T05:20:42.573Z,15.90
2024-05-09T05:23:18.409Z,15.90
2024-05-09T05:25:47.964Z,16.00
2024-05-09T05:28:16.969Z,16.10
2024-05-09T05:30:44.468Z,16.20
2024-05-09T05:33:15.569Z,16.30
2024-05-09T05:35:42.946Z,16.30
2024-05-09T05:38:11.108Z,16.30
2024-05-09T05:40:39.358Z,16.20
2024-05-09T05:43:08.978Z,16.20
2024-05-09T05:45:36.400Z,16.20
2024-05-09T05:48:05.712Z,16.10
2024-05-09T05:50:36.516Z,16.10
2024-05-09T05:53:09.596Z,15.90
2024-05-09T05:55:38.757Z,15.80
2024-05-09T05:58:08.552Z,15.80
2024-05-09T06:00:38.982Z,15.80
2024-05-09T06:03:09.310Z,15.80
2024-05-09T06:05:39.812Z,15.80
2024-05-09T06:08:07.729Z,15.70
2024-05-09T06:10:38.995Z,15.50
2024-05-09T06:13:10.579Z,15.30
2024-05-09T06:15:37.747Z,15.40
2024-05-09T06:18:09.264Z,15.40
2024-05-09T06:20:38.311Z,15.70
2024-05-09T06:23:06.806Z,15.70
2024-05-09T06:25:34.791Z,15.70
2024-05-09T06:28:02.311Z,15.60
2024-05-09T06:30:37.855Z,15.70
2024-05-09T06:33:08.928Z,15.60
2024-05-09T06:35:36.983Z,15.80
2024-05-09T06:38:04.914Z,16.00
2024-05-09T06:40:38.181Z,16.00
2024-05-09T06:43:18.303Z,15.90
2024-05-09T06:45:52.478Z,16.00
2024-05-09T06:48:20.466Z,15.90
2024-05-09T06:50:47.971Z,15.70
2024-05-09T06:53:16.282Z,15.90
2024-05-09T06:55:43.518Z,15.90
2024-05-09T06:58:10.424Z,16.30
2024-05-09T07:00:40.353Z,16.40
2024-05-09T07:03:16.396Z,16.40
2024-05-09T07:05:46.784Z,16.20
2024-05-09T07:08:15.030Z,16.60
2024-05-09T07:10:42.828Z,16.80
2024-05-09T07:13:14.284Z,16.40
2024-05-09T07:15:42.253Z,16.50
2024-05-09T07:18:18.243Z,16.70
2024-05-09T07:20:47.669Z,16.80
2024-05-09T07:23:15.581Z,17.00
2024-05-09T07:25:45.711Z,17.20
2024-05-09T07:28:15.100Z,17.10
2024-05-09T07:30:43.348Z,17.20
2024-05-09T07:33:15.847Z,17.40
2024-05-09T07:35:45.869Z,17.70
2024-05-09T07:38:15.228Z,17.60
2024-05-09T07:40:43.182Z,17.60
2024-05-09T07:43:16.557Z,18.00
2024-05-09T07:45:52.213Z,18.30
2024-05-09T07:52:37.829Z,18.80
2024-05-09T07:53:47.533Z,18.80
2024-05-09T07:56:18.941Z,18.70
2024-05-09T07:58:47.322Z,18.60
2024-05-09T08:01:14.548Z,18.50
2024-05-09T08:03:41.694Z,18.60
2024-05-09T08:06:08.728Z,18.40
2024-05-09T08:08:35.608Z,18.50
2024-05-09T08:11:03.050Z,18.80
2024-05-09T08:13:30.037Z,18.60
2024-05-09T08:15:57.018Z,18.60
2024-05-09T08:18:24.212Z,19.00
2024-05-09T08:20:51.381Z,19.20
2024-05-09T08:23:20.062Z,19.30
2024-05-09T08:25:48.114Z,19.40
2024-05-09T08:28:15.681Z,19.50
2024-05-09T08:30:43.273Z,19.80
2024-05-09T08:33:10.858Z,19.60
2024-05-09T08:35:39.151Z,20.10
2024-05-09T08:38:07.306Z,19.80
2024-05-09T08:40:36.886Z,19.90
2024-05-09T08:43:11.315Z,20.00
2024-05-09T08:45:44.291Z,20.00
2024-05-09T08:48:15.131Z,20.10
2024-05-09T08:50:47.358Z,20.20
2024-05-09T08:53:28.067Z,20.10
2024-05-09T08:55:57.659Z,20.00
2024-05-09T08:58:25.698Z,19.60
2024-05-09T09:00:53.167Z,19.70
2024-05-09T09:03:24.992Z,19.60
2024-05-09T09:06:02.867Z,19.60
2024-05-09T09:08:30.024Z,19.70
2024-05-09T09:11:00.417Z,19.90
2024-05-09T09:13:28.113Z,20.10
2024-05-09T09:15:58.682Z,20.20
2024-05-09T09:18:27.206Z,20.20
2024-05-09T09:20:55.100Z,20.30
2024-05-09T09:23:22.865Z,20.50
2024-05-09T09:25:50.527Z,20.40
2024-05-09T09:28:23.383Z,20.10
2024-05-09T09:30:50.544Z,20.60
2024-05-09T09:33:20.639Z,20.40
2024-05-09T09:35:47.852Z,20.40
2024-05-09T09:38:18.306Z,20.30
2024-05-09T09:40:50.108Z,20.40
2024-05-09T09:43:25.090Z,20.60
2024-05-09T09:45:55.368Z,20.70
2024-05-09T09:48:23.596Z,20.70
2024-05-09T09:50:55.478Z,20.60
2024-05-09T09:53:26.367Z,21.00
2024-05-09T09:55:54.719Z,20.70
2024-05-09T09:58:25.014Z,20.70
2024-05-09T10:00:52.284Z,21.10
2024-05-09T10:03:19.575Z,21.10
2024-05-09T10:05:47.526Z,21.50
2024-05-09T10:08:17.915Z,21.80
2024-05-09T10:10:48.838Z,21.70
2024-05-09T10:13:16.375Z,22.30
2024-05-09T10:15:46.007Z,22.50
2024-05-09T10:18:13.560Z,22.80
2024-05-09T10:20:46.872Z,22.80
2024-05-09T10:23:34.550Z,22.50
2024-05-09T10:26:06.363Z,22.20
2024-05-09T10:28:38.021Z,22.60
2024-05-09T10:31:13.145Z,22.80
2024-05-09T10:33:50.870Z,22.80
2024-05-09T10:36:39.595Z,23.10
2024-05-09T10:39:23.903Z,23.40
2024-05-09T10:41:50.962Z,22.80
2024-05-09T10:44:18.706Z,23.40
2024-05-09T10:46:49.870Z,23.70
2024-05-09T10:49:17.073Z,24.00
2024-05-09T10:51:47.262Z,24.00
2024-05-09T10:54:26.565Z,24.00
2024-05-09T10:56:57.714Z,23.30
2024-05-09T10:59:24.742Z,23.50
2024-05-09T11:01:51.801Z,24.00
2024-05-09T11:04:19.258Z,24.60
2024-05-09T11:06:47.409Z,23.60
2024-05-09T11:09:14.895Z,23.40
2024-05-09T11:11:43.822Z,23.40
2024-05-09T11:14:14.211Z,24.00
2024-05-09T11:16:41.339Z,23.60
2024-05-09T11:19:13.885Z,24.20
2024-05-09T11:21:41.280Z,23.70
2024-05-09T11:24:11.183Z,23.70
2024-05-09T11:26:38.688Z,24.20
2024-05-09T11:29:05.616Z,23.90
2024-05-09T11:31:33.044Z,23.60
2024-05-09T11:34:00.544Z,24.00
2024-05-09T11:36:28.100Z,24.30
2024-05-09T11:38:55.087Z,23.70
2024-05-09T11:41:22.330Z,23.20
2024-05-09T11:43:49.331Z,24.10
2024-05-09T11:46:16.528Z,24.90
2024-05-09T11:48:43.791Z,24.20
2024-05-09T11:51:10.795Z,24.60
2024-05-09T11:53:37.770Z,24.40
2024-05-09T11:56:05.087Z,24.80
2024-05-09T11:58:36.893Z,25.00
2024-05-09T12:01:04.342Z,25.70
2024-05-09T12:03:31.700Z,26.40
2024-05-09T12:05:59.177Z,26.50
2024-05-09T12:08:26.787Z,26.10
2024-05-09T12:10:54.068Z,25.90
2024-05-09T12:13:21.505Z,26.30
2024-05-09T12:15:48.819Z,26.10
2024-05-09T12:18:16.062Z,25.90
2024-05-09T12:20:43.436Z,26.00
2024-05-09T12:23:11.053Z,25.70
2024-05-09T12:25:39.886Z,26.00
2024-05-09T12:28:08.503Z,26.90
2024-05-09T12:30:40.202Z,26.70
2024-05-09T12:33:13.144Z,26.90
2024-05-09T12:35:44.088Z,26.80
2024-05-09T12:38:14.312Z,27.10
2024-05-09T12:40:42.342Z,26.70
2024-05-09T12:43:10.636Z,27.00
2024-05-09T12:45:39.196Z,26.80
2024-05-09T12:48:11.877Z,26.60
2024-05-09T12:50:40.213Z,27.20
2024-05-09T12:53:07.479Z,26.40
2024-05-09T12:55:43.834Z,26.60
2024-05-09T12:58:18.856Z,26.50
2024-05-09T13:00:46.812Z,26.70
2024-05-09T13:03:14.647Z,27.30
2024-05-09T13:05:44.901Z,27.90
2024-05-09T13:08:13.677Z,27.40
2024-05-09T13:10:41.635Z,27.30
2024-05-09T13:13:13.228Z,27.40
2024-05-09T13:15:40.513Z,27.00
2024-05-09T13:18:08.519Z,27.10
2024-05-09T13:20:36.791Z,27.40
2024-05-09T13:23:06.670Z,28.30
2024-05-09T13:25:35.249Z,29.00
2024-05-09T13:28:07.489Z,29.20
2024-05-09T13:30:40.368Z,29.80
2024-05-09T13:33:13.847Z,30.10
2024-05-09T13:35:46.871Z,30.70
2024-05-09T13:38:17.920Z,30.80
2024-05-09T13:40:45.447Z,30.50
2024-05-09T13:43:12.790Z,30.70
2024-05-09T13:45:40.362Z,30.60
2024-05-09T13:48:09.999Z,30.50
2024-05-09T13:50:37.732Z,29.50
2024-05-09T13:53:07.266Z,29.60
2024-05-09T13:55:37.835Z,29.30
2024-05-09T13:58:05.688Z,29.60
2024-05-09T14:00:43.834Z,30.10
2024-05-09T14:03:16.975Z,30.40
2024-05-09T14:05:46.927Z,30.50
2024-05-09T14:08:16.158Z,29.50
2024-05-09T14:10:46.607Z,29.80
2024-05-09T14:13:15.710Z,30.50
2024-05-09T14:15:43.686Z,29.80
2024-05-09T14:18:13.480Z,30.40
2024-05-09T14:20:42.603Z,30.80
2024-05-09T14:23:10.241Z,31.60
2024-05-09T14:25:42.043Z,32.20
2024-05-09T14:28:11.184Z,30.60
2024-05-09T14:30:39.308Z,31.10
2024-05-09T14:33:08.299Z,31.20
2024-05-09T14:35:37.958Z,31.10
2024-05-09T14:38:07.487Z,30.60
2024-05-09T14:40:41.440Z,30.30
2024-05-09T14:43:15.301Z,30.80
2024-05-09T14:45:45.689Z,30.90
2024-05-09T14:48:15.370Z,30.50
2024-05-09T14:50:43.206Z,30.50
2024-05-09T14:53:12.061Z,30.60
2024-05-09T14:55:41.694Z,31.00
2024-05-09T14:58:11.319Z,31.10
2024-05-09T15:00:47.925Z,31.90
2024-05-09T15:03:19.711Z,30.80
2024-05-09T15:05:48.159Z,31.00
2024-05-09T15:08:17.976Z,31.30
2024-05-09T15:10:45.490Z,31.60
2024-05-09T15:13:16.930Z,31.70
2024-05-09T15:15:44.912Z,31.70
2024-05-09T15:18:13.658Z,31.90
2024-05-09T15:20:41.501Z,32.10
2024-05-09T15:23:08.521Z,32.60
2024-05-09T15:25:36.761Z,31.80
2024-05-09T15:28:05.036Z,32.20
2024-05-09T15:30:33.791Z,31.70
2024-05-09T15:33:04.075Z,30.70
2024-05-09T15:35:31.516Z,31.10
2024-05-09T15:37:58.638Z,31.00
2024-05-09T15:40:35.456Z,30.50
2024-05-09T15:43:07.273Z,30.60
2024-05-09T15:45:34.830Z,30.10
2024-05-09T15:48:02.566Z,30.90
2024-05-09T15:50:37.044Z,31.20
2024-05-09T15:53:08.552Z,30.50
2024-05-09T15:55:36.433Z,31.30
2024-05-09T15:58:04.640Z,31.70
2024-05-09T16:00:38.126Z,31.60
2024-05-09T16:03:13.708Z,31.60
2024-05-09T16:05:48.398Z,32.30
2024-05-09T16:08:16.243Z,32.40
2024-05-09T16:10:46.024Z,32.40
2024-05-09T16:13:14.888Z,32.40
2024-05-09T16:15:46.396Z,32.40
2024-05-09T16:18:13.914Z,32.40
2024-05-09T16:20:42.573Z,32.10
2024-05-09T16:23:11.227Z,32.10
2024-05-09T16:25:39.061Z,32.70
2024-05-09T16:28:09.892Z,33.00
2024-05-09T16:30:39.117Z,33.00
2024-05-09T16:33:07.011Z,32.70
2024-05-09T16:35:35.084Z,32.90
2024-05-09T16:38:03.187Z,32.80
2024-05-09T16:40:37.433Z,32.00
2024-05-09T16:43:08.088Z,30.70
2024-05-09T16:45:35.441Z,31.00
2024-05-09T16:48:03.231Z,31.90
2024-05-09T16:50:34.084Z,32.20
2024-05-09T16:53:03.982Z,32.70
2024-05-09T16:55:31.635Z,32.70
2024-05-09T16:57:58.957Z,33.10
2024-05-09T17:00:36.071Z,33.00
2024-05-09T17:03:09.742Z,33.10
2024-05-09T17:05:37.508Z,33.20
2024-05-09T17:08:05.279Z,32.20
2024-05-09T17:10:34.396Z,31.60
2024-05-09T17:13:07.072Z,32.00
2024-05-09T17:15:35.944Z,31.60
2024-05-09T17:18:04.255Z,32.20
2024-05-09T17:20:34.750Z,31.50
2024-05-09T17:23:06.276Z,31.10
2024-05-09T17:25:33.933Z,31.60
2024-05-09T17:28:06.902Z,31.40
2024-05-09T17:30:42.805Z,31.50
2024-05-09T17:33:11.751Z,31.50
2024-05-09T17:35:40.057Z,31.70
2024-05-09T17:38:07.396Z,32.30
2024-05-09T17:40:36.983Z,32.20
2024-05-09T17:43:08.000Z,33.00
2024-05-09T17:45:41.194Z,33.30
2024-05-09T17:48:10.936Z,32.70
2024-05-09T17:50:39.663Z,32.50
2024-05-09T17:53:07.282Z,32.70
2024-05-09T17:55:35.005Z,32.20
2024-05-09T17:58:02.677Z,32.30
2024-05-09T18:00:37.577Z,32.50
2024-05-09T18:03:08.569Z,32.20
2024-05-09T18:05:37.050Z,31.80
2024-05-09T18:08:05.608Z,31.60
2024-05-09T18:10:37.002Z,31.50
2024-05-09T18:13:07.299Z,31.70
2024-05-09T18:15:34.787Z,32.50
2024-05-09T18:18:03.271Z,30.80
2024-05-09T18:20:39.887Z,31.00
2024-05-09T18:23:11.719Z,29.40
2024-05-09T18:25:39.057Z,28.40
2024-05-09T18:28:07.031Z,27.70
2024-05-09T18:30:36.435Z,27.10
2024-05-09T18:33:06.676Z,26.70
2024-05-09T18:35:35.070Z,26.70
2024-05-09T18:38:02.232Z,26.90
2024-05-09T18:40:34.370Z,26.40
2024-05-09T18:43:06.670Z,26.50
2024-05-09T18:45:35.752Z,26.40
2024-05-09T18:48:05.629Z,26.10
2024-05-09T18:50:37.515Z,26.10
2024-05-09T18:53:07.507Z,25.90
2024-05-09T18:55:34.947Z,25.50
2024-05-09T18:58:02.268Z,25.30
2024-05-09T19:00:35.746Z,25.20
2024-05-09T19:03:09.678Z,25.40
2024-05-09T19:05:39.168Z,25.30
2024-05-09T19:08:07.675Z,25.20
2024-05-09T19:10:36.371Z,24.80
2024-05-09T19:13:08.624Z,24.90
2024-05-09T19:15:39.458Z,25.00
2024-05-09T19:18:07.551Z,24.90
2024-05-09T19:20:36.322Z,24.50
2024-05-09T19:23:06.044Z,24.60
2024-05-09T19:25:34.482Z,24.50
2024-05-09T19:28:01.748Z,24.60
2024-05-09T19:30:37.135Z,24.70
2024-05-09T19:33:08.761Z,24.70
2024-05-09T19:35:36.202Z,24.60
2024-05-09T19:38:03.526Z,24.30
2024-05-09T19:40:33.027Z,23.80
2024-05-09T19:43:02.848Z,23.50
2024-05-09T19:45:30.742Z,23.40
2024-05-09T19:47:57.912Z,23.30
2024-05-09T19:50:36.014Z,23.40
2024-05-09T19:53:08.842Z,23.70
2024-05-09T19:55:35.870Z,23.60
2024-05-09T19:58:08.891Z,23.50
2024-05-09T20:00:39.883Z,23.60
2024-05-09T20:03:09.876Z,23.70
2024-05-09T20:05:37.974Z,23.60
2024-05-09T20:08:06.071Z,23.00
2024-05-09T20:10:35.369Z,22.40
2024-05-09T20:13:05.196Z,21.90
2024-05-09T20:15:35.215Z,21.70
2024-05-09T20:18:02.725Z,21.60
2024-05-09T20:20:37.349Z,21.60
2024-05-09T20:23:08.667Z,21.80
2024-05-09T20:25:35.837Z,21.30
2024-05-09T20:28:04.534Z,21.40
2024-05-09T20:30:34.240Z,20.60
2024-05-09T20:33:04.569Z,20.60
2024-05-09T20:35:33.209Z,20.60
2024-05-09T20:38:01.641Z,20.70
2024-05-09T20:40:33.877Z,20.50
2024-05-09T20:43:04.784Z,20.60
2024-05-09T20:45:32.165Z,20.60
2024-05-09T20:47:59.695Z,20.70
2024-05-09T20:50:36.034Z,20.60
2024-05-09T20:53:09.924Z,20.50
2024-05-09T20:55:37.009Z,20.30
2024-05-09T20:58:04.425Z,20.20
2024-05-09T21:00:39.890Z,20.10
2024-05-09T21:03:11.070Z,20.00
2024-05-09T21:05:39.102Z,20.00
2024-05-09T21:08:06.904Z,20.10
2024-05-09T21:10:35.983Z,20.00
2024-05-09T21:13:04.020Z,19.90
2024-05-09T21:15:32.082Z,19.90
2024-05-09T21:17:59.642Z,19.90
2024-05-09T21:22:57.978Z,19.60
2024-05-09T21:25:25.172Z,19.50
2024-05-09T21:27:52.471Z,19.50
2024-05-09T21:30:31.251Z,19.40
2024-05-09T21:33:06.124Z,19.40
2024-05-09T21:35:33.169Z,19.20
2024-05-09T21:38:00.088Z,19.30
2024-05-09T21:40:33.820Z,19.60
2024-05-09T21:43:03.202Z,19.80
2024-05-09T21:45:30.347Z,19.70
2024-05-09T21:47:57.511Z,19.40
2024-05-09T21:50:32.212Z,19.30
2024-05-09T21:53:06.665Z,19.40
2024-05-09T21:55:33.977Z,19.40
2024-05-09T21:58:01.194Z,19.30
2024-05-09T22:00:35.499Z,19.50
2024-05-09T22:03:10.282Z,19.70
2024-05-09T22:05:41.872Z,19.40
2024-05-09T22:08:09.355Z,18.60
2024-05-09T22:10:37.092Z,18.50
2024-05-09T22:13:06.182Z,18.40
2024-05-09T22:15:38.970Z,18.30
2024-05-09T22:18:08.469Z,18.20
2024-05-09T22:20:38.917Z,18.10
2024-05-09T22:23:07.686Z,18.10
2024-05-09T22:25:35.696Z,18.00
2024-05-09T22:28:03.546Z,18.00
2024-05-09T22:30:36.673Z,18.00
2024-05-09T22:33:11.070Z,18.20
2024-05-09T22:35:39.933Z,18.20
2024-05-09T22:38:07.083Z,18.20
2024-05-09T22:40:44.798Z,18.20
2024-05-09T22:43:21.097Z,18.30
2024-05-09T22:45:50.243Z,18.30
2024-05-09T22:48:18.227Z,18.10
2024-05-09T22:50:45.228Z,18.40
2024-05-09T22:53:14.656Z,18.40
2024-05-09T22:55:43.727Z,19.40
2024-05-09T22:58:11.096Z,18.40
2024-05-09T23:00:38.356Z,18.20
2024-05-09T23:03:06.227Z,18.00
2024-05-09T23:05:33.346Z,17.90
2024-05-09T23:08:03.487Z,17.10
2024-05-09T23:10:36.109Z,17.70
2024-05-09T23:13:06.484Z,17.80
2024-05-09T23:15:34.003Z,17.70
2024-05-09T23:18:01.207Z,17.70
2024-05-09T23:20:36.246Z,17.60
2024-05-09T23:23:06.938Z,17.50
2024-05-09T23:25:34.250Z,17.40
2024-05-09T23:28:01.485Z,17.50
2024-05-09T23:30:36.352Z,17.50
2024-05-09T23:33:06.843Z,17.30
2024-05-09T23:35:34.306Z,17.10
2024-05-09T23:38:01.233Z,17.20
2024-05-09T23:40:38.320Z,17.40
2024-05-09T23:43:11.739Z,17.40
2024-05-09T23:45:39.579Z,17.50
2024-05-09T23:48:07.141Z,17.40
2024-05-09T23:50:37.642Z,17.40
2024-05-09T23:53:08.000Z,17.40
2024-05-09T23:55:36.348Z,17.40
2024-05-09T23:58:03.643Z,17.40
